sensor_id;sensor_type;location;lat;lon;timestamp;P1;durP1;ratioP1;P2;durP2;ratioP2
67717;SDS011;54511;47.532;19.180;2023-03-01T00:01:27;3.45;;;1.70;;
67717;SDS011;54511;47.532;19.180;2023-03-01T00:04:54;1.62;;;1.35;;
67717;SDS011;54511;47.532;19.180;2023-03-01T00:07:40;3.60;;;2.60;;
67717;SDS011;54511;47.532;19.180;2023-03-01T00:10:49;1.98;;;1.65;;
67717;SDS011;54511;47.532;19.180;2023-03-01T00:14:16;1.83;;;1.17;;
67717;SDS011;54511;47.532;19.180;2023-03-01T00:17:23;8.15;;;1.80;;
67717;SDS011;54511;47.532;19.180;2023-03-01T00:20:30;5.87;;;0.70;;
67717;SDS011;54511;47.532;19.180;2023-03-01T00:23:17;1.50;;;1.27;;
67717;SDS011;54511;47.532;19.180;2023-03-01T00:26:26;4.47;;;1.17;;
67717;SDS011;54511;47.532;19.180;2023-03-01T00:29:52;4.20;;;2.30;;
67717;SDS011;54511;47.532;19.180;2023-03-01T00:32:40;1.23;;;1.12;;
67717;SDS011;54511;47.532;19.180;2023-03-01T00:36:07;1.15;;;1.12;;
67717;SDS011;54511;47.532;19.180;2023-03-01T00:39:34;2.50;;;1.10;;
67717;SDS011;54511;47.532;19.180;2023-03-01T00:42:22;6.55;;;2.55;;
67717;SDS011;54511;47.532;19.180;2023-03-01T00:45:51;0.60;;;0.60;;
67717;SDS011;54511;47.532;19.180;2023-03-01T00:49:18;2.78;;;1.30;;
67717;SDS011;54511;47.532;19.180;2023-03-01T00:52:25;2.58;;;1.20;;
67717;SDS011;54511;47.532;19.180;2023-03-01T00:55:12;1.27;;;1.17;;
67717;SDS011;54511;47.532;19.180;2023-03-01T00:58:20;2.17;;;1.77;;
67717;SDS011;54511;47.532;19.180;2023-03-01T01:01:47;1.15;;;1.05;;
67717;SDS011;54511;47.532;19.180;2023-03-01T01:04:55;1.70;;;1.48;;
67717;SDS011;54511;47.532;19.180;2023-03-01T01:07:42;5.57;;;1.92;;
67717;SDS011;54511;47.532;19.180;2023-03-01T01:10:49;2.62;;;1.55;;
67717;SDS011;54511;47.532;19.180;2023-03-01T01:13:38;0.62;;;0.52;;
67717;SDS011;54511;47.532;19.180;2023-03-01T01:16:45;2.47;;;1.02;;
67717;SDS011;54511;47.532;19.180;2023-03-01T01:19:32;1.45;;;1.35;;
67717;SDS011;54511;47.532;19.180;2023-03-01T01:22:19;3.60;;;1.75;;
67717;SDS011;54511;47.532;19.180;2023-03-01T01:25:46;2.08;;;0.68;;
67717;SDS011;54511;47.532;19.180;2023-03-01T01:29:15;2.92;;;1.87;;
67717;SDS011;54511;47.532;19.180;2023-03-01T01:32:21;2.10;;;1.90;;
67717;SDS011;54511;47.532;19.180;2023-03-01T01:35:28;4.12;;;1.98;;
67717;SDS011;54511;47.532;19.180;2023-03-01T01:38:36;3.72;;;1.75;;
67717;SDS011;54511;47.532;19.180;2023-03-01T01:41:43;2.45;;;0.85;;
67717;SDS011;54511;47.532;19.180;2023-03-01T01:45:31;0.43;;;0.43;;
67717;SDS011;54511;47.532;19.180;2023-03-01T01:48:58;0.50;;;0.45;;
67717;SDS011;54511;47.532;19.180;2023-03-01T01:52:29;3.00;;;1.25;;
67717;SDS011;54511;47.532;19.180;2023-03-01T01:55:57;1.37;;;0.65;;
67717;SDS011;54511;47.532;19.180;2023-03-01T01:59:23;0.60;;;0.60;;
67717;SDS011;54511;47.532;19.180;2023-03-01T02:02:54;2.25;;;1.35;;
67717;SDS011;54511;47.532;19.180;2023-03-01T02:06:21;1.17;;;1.08;;
67717;SDS011;54511;47.532;19.180;2023-03-01T02:09:47;1.15;;;0.82;;
67717;SDS011;54511;47.532;19.180;2023-03-01T02:13:14;3.12;;;1.37;;
67717;SDS011;54511;47.532;19.180;2023-03-01T02:16:41;0.62;;;0.62;;
67717;SDS011;54511;47.532;19.180;2023-03-01T02:20:18;7.65;;;1.73;;
67717;SDS011;54511;47.532;19.180;2023-03-01T02:23:38;3.60;;;2.65;;
67717;SDS011;54511;47.532;19.180;2023-03-01T02:26:48;1.87;;;1.02;;
67717;SDS011;54511;47.532;19.180;2023-03-01T02:30:15;2.90;;;2.15;;
67717;SDS011;54511;47.532;19.180;2023-03-01T02:33:40;1.35;;;0.85;;
67717;SDS011;54511;47.532;19.180;2023-03-01T02:37:08;1.40;;;1.08;;
67717;SDS011;54511;47.532;19.180;2023-03-01T02:40:15;0.28;;;0.28;;
67717;SDS011;54511;47.532;19.180;2023-03-01T02:43:42;3.33;;;1.08;;
67717;SDS011;54511;47.532;19.180;2023-03-01T02:47:11;1.48;;;0.80;;
67717;SDS011;54511;47.532;19.180;2023-03-01T02:50:38;0.75;;;0.75;;
67717;SDS011;54511;47.532;19.180;2023-03-01T02:53:57;2.87;;;1.92;;
67717;SDS011;54511;47.532;19.180;2023-03-01T02:57:24;0.62;;;0.40;;
67717;SDS011;54511;47.532;19.180;2023-03-01T03:00:51;2.75;;;1.65;;
67717;SDS011;54511;47.532;19.180;2023-03-01T03:04:24;3.45;;;1.58;;
67717;SDS011;54511;47.532;19.180;2023-03-01T03:07:51;4.25;;;1.87;;
67717;SDS011;54511;47.532;19.180;2023-03-01T03:10:59;3.12;;;1.02;;
67717;SDS011;54511;47.532;19.180;2023-03-01T03:13:46;0.50;;;0.47;;
67717;SDS011;54511;47.532;19.180;2023-03-01T03:17:12;0.52;;;0.43;;
67717;SDS011;54511;47.532;19.180;2023-03-01T03:20:23;1.40;;;1.30;;
67717;SDS011;54511;47.532;19.180;2023-03-01T03:23:49;1.05;;;0.90;;
67717;SDS011;54511;47.532;19.180;2023-03-01T03:27:16;2.85;;;1.60;;
67717;SDS011;54511;47.532;19.180;2023-03-01T03:30:43;0.22;;;0.22;;
67717;SDS011;54511;47.532;19.180;2023-03-01T03:33:50;3.03;;;0.60;;
67717;SDS011;54511;47.532;19.180;2023-03-01T03:36:58;1.02;;;0.90;;
67717;SDS011;54511;47.532;19.180;2023-03-01T03:40:23;0.32;;;0.32;;
67717;SDS011;54511;47.532;19.180;2023-03-01T03:43:50;0.52;;;0.45;;
67717;SDS011;54511;47.532;19.180;2023-03-01T03:46:57;2.37;;;0.65;;
67717;SDS011;54511;47.532;19.180;2023-03-01T03:49:44;0.22;;;0.22;;
67717;SDS011;54511;47.532;19.180;2023-03-01T03:53:13;2.53;;;1.15;;
67717;SDS011;54511;47.532;19.180;2023-03-01T03:56:20;5.05;;;1.30;;
67717;SDS011;54511;47.532;19.180;2023-03-01T03:59:07;2.67;;;2.47;;
67717;SDS011;54511;47.532;19.180;2023-03-01T04:01:55;0.30;;;0.20;;
67717;SDS011;54511;47.532;19.180;2023-03-01T04:05:02;2.33;;;2.05;;
67717;SDS011;54511;47.532;19.180;2023-03-01T04:08:10;0.68;;;0.68;;
67717;SDS011;54511;47.532;19.180;2023-03-01T04:11:38;0.10;;;0.10;;
67717;SDS011;54511;47.532;19.180;2023-03-01T04:14:45;2.85;;;1.67;;
67717;SDS011;54511;47.532;19.180;2023-03-01T04:18:13;1.35;;;0.80;;
67717;SDS011;54511;47.532;19.180;2023-03-01T04:21:20;0.30;;;0.25;;
67717;SDS011;54511;47.532;19.180;2023-03-01T04:24:49;1.55;;;0.60;;
67717;SDS011;54511;47.532;19.180;2023-03-01T04:27:56;3.03;;;0.68;;
67717;SDS011;54511;47.532;19.180;2023-03-01T04:31:05;1.35;;;1.25;;
67717;SDS011;54511;47.532;19.180;2023-03-01T04:34:10;1.45;;;1.17;;
67717;SDS011;54511;47.532;19.180;2023-03-01T04:37:17;1.17;;;1.08;;
67717;SDS011;54511;47.532;19.180;2023-03-01T04:40:25;1.67;;;0.95;;
67717;SDS011;54511;47.532;19.180;2023-03-01T04:43:52;6.18;;;0.65;;
67717;SDS011;54511;47.532;19.180;2023-03-01T04:46:59;1.30;;;0.47;;
67717;SDS011;54511;47.532;19.180;2023-03-01T04:50:07;0.60;;;0.60;;
67717;SDS011;54511;47.532;19.180;2023-03-01T04:53:14;3.33;;;0.70;;
67717;SDS011;54511;47.532;19.180;2023-03-01T04:56:03;1.35;;;0.93;;
67717;SDS011;54511;47.532;19.180;2023-03-01T04:59:10;0.40;;;0.35;;
67717;SDS011;54511;47.532;19.180;2023-03-01T05:02:17;4.22;;;0.85;;
67717;SDS011;54511;47.532;19.180;2023-03-01T05:05:25;2.05;;;1.27;;
67717;SDS011;54511;47.532;19.180;2023-03-01T05:08:51;1.00;;;0.95;;
67717;SDS011;54511;47.532;19.180;2023-03-01T05:11:59;0.77;;;0.77;;
67717;SDS011;54511;47.532;19.180;2023-03-01T05:15:06;2.17;;;1.62;;
67717;SDS011;54511;47.532;19.180;2023-03-01T05:17:54;0.30;;;0.30;;
67717;SDS011;54511;47.532;19.180;2023-03-01T05:21:05;1.05;;;0.45;;
67717;SDS011;54511;47.532;19.180;2023-03-01T05:24:50;0.93;;;0.57;;
67717;SDS011;54511;47.532;19.180;2023-03-01T05:27:58;1.05;;;0.95;;
67717;SDS011;54511;47.532;19.180;2023-03-01T05:31:26;1.15;;;1.05;;
67717;SDS011;54511;47.532;19.180;2023-03-01T05:34:34;1.77;;;1.65;;
67717;SDS011;54511;47.532;19.180;2023-03-01T05:37:41;1.08;;;0.90;;
67717;SDS011;54511;47.532;19.180;2023-03-01T05:41:13;0.52;;;0.52;;
67717;SDS011;54511;47.532;19.180;2023-03-01T05:44:22;3.45;;;2.08;;
67717;SDS011;54511;47.532;19.180;2023-03-01T05:47:29;2.00;;;1.83;;
67717;SDS011;54511;47.532;19.180;2023-03-01T05:50:17;2.03;;;0.75;;
67717;SDS011;54511;47.532;19.180;2023-03-01T05:53:43;1.65;;;0.98;;
67717;SDS011;54511;47.532;19.180;2023-03-01T05:56:51;1.10;;;0.55;;
67717;SDS011;54511;47.532;19.180;2023-03-01T06:00:21;3.35;;;1.45;;
67717;SDS011;54511;47.532;19.180;2023-03-01T06:03:48;1.65;;;1.25;;
67717;SDS011;54511;47.532;19.180;2023-03-01T06:06:36;0.60;;;0.60;;
67717;SDS011;54511;47.532;19.180;2023-03-01T06:10:03;2.10;;;0.75;;
67717;SDS011;54511;47.532;19.180;2023-03-01T06:13:30;1.05;;;0.68;;
67717;SDS011;54511;47.532;19.180;2023-03-01T06:16:19;2.37;;;0.73;;
67717;SDS011;54511;47.532;19.180;2023-03-01T06:19:46;0.45;;;0.45;;
67717;SDS011;54511;47.532;19.180;2023-03-01T06:22:33;10.40;;;1.15;;
67717;SDS011;54511;47.532;19.180;2023-03-01T06:26:04;1.48;;;1.37;;
67717;SDS011;54511;47.532;19.180;2023-03-01T06:29:32;0.93;;;0.73;;
67717;SDS011;54511;47.532;19.180;2023-03-01T06:33:00;0.75;;;0.60;;
67717;SDS011;54511;47.532;19.180;2023-03-01T06:36:08;0.77;;;0.77;;
67717;SDS011;54511;47.532;19.180;2023-03-01T06:39:15;2.10;;;1.37;;
67717;SDS011;54511;47.532;19.180;2023-03-01T06:42:43;2.60;;;1.55;;
67717;SDS011;54511;47.532;19.180;2023-03-01T06:46:09;0.82;;;0.82;;
67717;SDS011;54511;47.532;19.180;2023-03-01T06:49:22;0.85;;;0.60;;
67717;SDS011;54511;47.532;19.180;2023-03-01T06:52:30;0.98;;;0.95;;
67717;SDS011;54511;47.532;19.180;2023-03-01T06:58:49;0.73;;;0.73;;
67717;SDS011;54511;47.532;19.180;2023-03-01T07:02:16;1.55;;;1.33;;
67717;SDS011;54511;47.532;19.180;2023-03-01T07:05:45;1.00;;;0.68;;
67717;SDS011;54511;47.532;19.180;2023-03-01T07:08:52;2.22;;;1.48;;
67717;SDS011;54511;47.532;19.180;2023-03-01T07:11:40;1.17;;;1.17;;
67717;SDS011;54511;47.532;19.180;2023-03-01T07:14:50;0.40;;;0.32;;
67717;SDS011;54511;47.532;19.180;2023-03-01T07:18:29;1.42;;;1.15;;
67717;SDS011;54511;47.532;19.180;2023-03-01T07:21:33;0.95;;;0.77;;
67717;SDS011;54511;47.532;19.180;2023-03-01T07:25:03;2.10;;;1.83;;
67717;SDS011;54511;47.532;19.180;2023-03-01T07:28:36;2.83;;;1.83;;
67717;SDS011;54511;47.532;19.180;2023-03-01T07:31:43;0.62;;;0.43;;
67717;SDS011;54511;47.532;19.180;2023-03-01T07:35:11;2.53;;;1.45;;
67717;SDS011;54511;47.532;19.180;2023-03-01T07:41:41;1.17;;;1.08;;
67717;SDS011;54511;47.532;19.180;2023-03-01T07:44:48;0.65;;;0.65;;
67717;SDS011;54511;47.532;19.180;2023-03-01T07:48:16;1.50;;;1.35;;
67717;SDS011;54511;47.532;19.180;2023-03-01T07:51:43;1.02;;;0.65;;
67717;SDS011;54511;47.532;19.180;2023-03-01T07:54:51;2.05;;;1.12;;
67717;SDS011;54511;47.532;19.180;2023-03-01T07:58:26;0.45;;;0.45;;
67717;SDS011;54511;47.532;19.180;2023-03-01T08:01:55;0.30;;;0.30;;
67717;SDS011;54511;47.532;19.180;2023-03-01T08:05:04;0.95;;;0.80;;
67717;SDS011;54511;47.532;19.180;2023-03-01T08:07:52;1.00;;;0.95;;
67717;SDS011;54511;47.532;19.180;2023-03-01T08:11:01;1.02;;;0.93;;
67717;SDS011;54511;47.532;19.180;2023-03-01T08:14:14;0.20;;;0.13;;
67717;SDS011;54511;47.532;19.180;2023-03-01T08:17:43;0.30;;;0.30;;
67717;SDS011;54511;47.532;19.180;2023-03-01T08:20:51;1.02;;;0.80;;
67717;SDS011;54511;47.532;19.180;2023-03-01T08:24:24;1.48;;;1.20;;
67717;SDS011;54511;47.532;19.180;2023-03-01T08:27:51;1.98;;;1.12;;
67717;SDS011;54511;47.532;19.180;2023-03-01T08:31:21;1.20;;;0.95;;
67717;SDS011;54511;47.532;19.180;2023-03-01T08:34:47;1.17;;;1.10;;
67717;SDS011;54511;47.532;19.180;2023-03-01T08:37:54;1.37;;;1.27;;
67717;SDS011;54511;47.532;19.180;2023-03-01T08:40:46;0.60;;;0.60;;
67717;SDS011;54511;47.532;19.180;2023-03-01T08:43:53;0.80;;;0.80;;
67717;SDS011;54511;47.532;19.180;2023-03-01T08:47:22;4.78;;;1.17;;
67717;SDS011;54511;47.532;19.180;2023-03-01T08:50:30;1.35;;;0.65;;
67717;SDS011;54511;47.532;19.180;2023-03-01T08:53:57;1.40;;;0.73;;
67717;SDS011;54511;47.532;19.180;2023-03-01T08:57:04;0.88;;;0.82;;
67717;SDS011;54511;47.532;19.180;2023-03-01T08:59:52;1.35;;;0.68;;
67717;SDS011;54511;47.532;19.180;2023-03-01T09:02:41;0.55;;;0.55;;
67717;SDS011;54511;47.532;19.180;2023-03-01T09:06:08;4.03;;;0.95;;
67717;SDS011;54511;47.532;19.180;2023-03-01T09:09:36;0.75;;;0.37;;
67717;SDS011;54511;47.532;19.180;2023-03-01T09:12:43;0.75;;;0.68;;
67717;SDS011;54511;47.532;19.180;2023-03-01T09:16:10;1.98;;;1.67;;
67717;SDS011;54511;47.532;19.180;2023-03-01T09:19:18;1.23;;;1.05;;
67717;SDS011;54511;47.532;19.180;2023-03-01T09:22:45;1.98;;;1.60;;
67717;SDS011;54511;47.532;19.180;2023-03-01T09:26:13;0.73;;;0.73;;
67717;SDS011;54511;47.532;19.180;2023-03-01T09:29:19;0.77;;;0.68;;
67717;SDS011;54511;47.532;19.180;2023-03-01T09:32:06;0.95;;;0.77;;
67717;SDS011;54511;47.532;19.180;2023-03-01T09:34:55;0.50;;;0.50;;
67717;SDS011;54511;47.532;19.180;2023-03-01T09:38:02;0.20;;;0.20;;
67717;SDS011;54511;47.532;19.180;2023-03-01T09:40:49;0.70;;;0.65;;
67717;SDS011;54511;47.532;19.180;2023-03-01T09:43:37;0.52;;;0.52;;
67717;SDS011;54511;47.532;19.180;2023-03-01T09:47:04;3.15;;;0.50;;
67717;SDS011;54511;47.532;19.180;2023-03-01T09:50:33;1.52;;;0.60;;
67717;SDS011;54511;47.532;19.180;2023-03-01T09:53:40;1.23;;;0.60;;
67717;SDS011;54511;47.532;19.180;2023-03-01T09:57:06;1.15;;;0.35;;
67717;SDS011;54511;47.532;19.180;2023-03-01T10:00:36;1.15;;;1.02;;
67717;SDS011;54511;47.532;19.180;2023-03-01T10:03:50;1.97;;;1.10;;
67717;SDS011;54511;47.532;19.180;2023-03-01T10:07:24;1.42;;;0.43;;
67717;SDS011;54511;47.532;19.180;2023-03-01T10:10:50;1.35;;;0.95;;
67717;SDS011;54511;47.532;19.180;2023-03-01T10:14:27;0.85;;;0.75;;
67717;SDS011;54511;47.532;19.180;2023-03-01T10:17:55;0.40;;;0.40;;
67717;SDS011;54511;47.532;19.180;2023-03-01T10:21:22;3.12;;;0.93;;
67717;SDS011;54511;47.532;19.180;2023-03-01T10:24:12;1.50;;;1.00;;
67717;SDS011;54511;47.532;19.180;2023-03-01T10:27:21;0.80;;;0.75;;
67717;SDS011;54511;47.532;19.180;2023-03-01T10:30:48;0.62;;;0.45;;
67717;SDS011;54511;47.532;19.180;2023-03-01T10:33:35;1.55;;;0.52;;
67717;SDS011;54511;47.532;19.180;2023-03-01T10:37:08;1.55;;;0.55;;
67717;SDS011;54511;47.532;19.180;2023-03-01T10:40:13;0.75;;;0.68;;
67717;SDS011;54511;47.532;19.180;2023-03-01T10:43:43;0.57;;;0.50;;
67717;SDS011;54511;47.532;19.180;2023-03-01T10:47:12;0.70;;;0.57;;
67717;SDS011;54511;47.532;19.180;2023-03-01T10:50:19;2.50;;;0.85;;
67717;SDS011;54511;47.532;19.180;2023-03-01T10:53:26;1.87;;;0.50;;
67717;SDS011;54511;47.532;19.180;2023-03-01T10:56:56;1.20;;;1.10;;
67717;SDS011;54511;47.532;19.180;2023-03-01T11:00:28;1.27;;;0.50;;
67717;SDS011;54511;47.532;19.180;2023-03-01T11:04:10;2.08;;;0.70;;
67717;SDS011;54511;47.532;19.180;2023-03-01T11:07:16;2.55;;;0.90;;
67717;SDS011;54511;47.532;19.180;2023-03-01T11:10:51;2.00;;;1.83;;
67717;SDS011;54511;47.532;19.180;2023-03-01T11:14:25;0.57;;;0.50;;
67717;SDS011;54511;47.532;19.180;2023-03-01T11:17:52;1.37;;;1.27;;
67717;SDS011;54511;47.532;19.180;2023-03-01T11:21:25;1.27;;;0.93;;
67717;SDS011;54511;47.532;19.180;2023-03-01T11:25:02;3.50;;;1.52;;
67717;SDS011;54511;47.532;19.180;2023-03-01T11:28:30;3.92;;;1.65;;
67717;SDS011;54511;47.532;19.180;2023-03-01T11:31:39;2.37;;;1.10;;
67717;SDS011;54511;47.532;19.180;2023-03-01T11:35:08;1.25;;;0.82;;
67717;SDS011;54511;47.532;19.180;2023-03-01T11:38:35;1.00;;;0.65;;
67717;SDS011;54511;47.532;19.180;2023-03-01T11:42:03;1.27;;;1.02;;
67717;SDS011;54511;47.532;19.180;2023-03-01T11:45:31;1.50;;;0.73;;
67717;SDS011;54511;47.532;19.180;2023-03-01T11:49:02;1.55;;;0.85;;
67717;SDS011;54511;47.532;19.180;2023-03-01T11:52:38;1.40;;;1.30;;
67717;SDS011;54511;47.532;19.180;2023-03-01T11:56:18;0.75;;;0.73;;
67717;SDS011;54511;47.532;19.180;2023-03-01T12:00:07;1.92;;;0.90;;
67717;SDS011;54511;47.532;19.180;2023-03-01T12:03:46;1.77;;;0.90;;
67717;SDS011;54511;47.532;19.180;2023-03-01T12:07:08;0.62;;;0.55;;
67717;SDS011;54511;47.532;19.180;2023-03-01T12:10:37;3.40;;;2.08;;
67717;SDS011;54511;47.532;19.180;2023-03-01T12:14:13;1.35;;;1.25;;
67717;SDS011;54511;47.532;19.180;2023-03-01T12:17:48;0.22;;;0.22;;
67717;SDS011;54511;47.532;19.180;2023-03-01T12:21:27;0.30;;;0.30;;
67717;SDS011;54511;47.532;19.180;2023-03-01T12:25:12;0.73;;;0.57;;
67717;SDS011;54511;47.532;19.180;2023-03-01T12:32:15;0.68;;;0.50;;
67717;SDS011;54511;47.532;19.180;2023-03-01T12:39:30;0.68;;;0.47;;
67717;SDS011;54511;47.532;19.180;2023-03-01T12:43:01;3.70;;;0.80;;
67717;SDS011;54511;47.532;19.180;2023-03-01T12:46:33;0.82;;;0.80;;
67717;SDS011;54511;47.532;19.180;2023-03-01T12:50:03;1.27;;;1.17;;
67717;SDS011;54511;47.532;19.180;2023-03-01T12:53:28;3.12;;;1.25;;
67717;SDS011;54511;47.532;19.180;2023-03-01T12:56:55;0.40;;;0.30;;
67717;SDS011;54511;47.532;19.180;2023-03-01T13:00:26;0.45;;;0.45;;
67717;SDS011;54511;47.532;19.180;2023-03-01T13:03:58;1.27;;;0.88;;
67717;SDS011;54511;47.532;19.180;2023-03-01T13:07:20;0.25;;;0.25;;
67717;SDS011;54511;47.532;19.180;2023-03-01T13:10:47;2.45;;;1.15;;
67717;SDS011;54511;47.532;19.180;2023-03-01T13:17:53;0.50;;;0.50;;
67717;SDS011;54511;47.532;19.180;2023-03-01T13:21:35;0.47;;;0.37;;
67717;SDS011;54511;47.532;19.180;2023-03-01T13:24:26;0.32;;;0.25;;
67717;SDS011;54511;47.532;19.180;2023-03-01T13:27:32;2.70;;;1.17;;
67717;SDS011;54511;47.532;19.180;2023-03-01T13:30:39;1.60;;;0.82;;
67717;SDS011;54511;47.532;19.180;2023-03-01T13:34:07;0.32;;;0.32;;
67717;SDS011;54511;47.532;19.180;2023-03-01T13:37:47;1.00;;;0.60;;
67717;SDS011;54511;47.532;19.180;2023-03-01T13:41:09;1.55;;;1.08;;
67717;SDS011;54511;47.532;19.180;2023-03-01T13:44:55;0.20;;;0.20;;
67717;SDS011;54511;47.532;19.180;2023-03-01T13:48:23;0.22;;;0.22;;
67717;SDS011;54511;47.532;19.180;2023-03-01T13:51:51;2.37;;;0.55;;
67717;SDS011;54511;47.532;19.180;2023-03-01T13:55:32;0.52;;;0.47;;
67717;SDS011;54511;47.532;19.180;2023-03-01T13:58:58;2.58;;;1.10;;
67717;SDS011;54511;47.532;19.180;2023-03-01T14:02:24;0.30;;;0.30;;
67717;SDS011;54511;47.532;19.180;2023-03-01T14:05:12;6.03;;;1.37;;
67717;SDS011;54511;47.532;19.180;2023-03-01T14:08:00;1.48;;;0.80;;
67717;SDS011;54511;47.532;19.180;2023-03-01T14:14:59;3.45;;;1.50;;
67717;SDS011;54511;47.532;19.180;2023-03-01T14:18:26;0.25;;;0.25;;
67717;SDS011;54511;47.532;19.180;2023-03-01T14:22:02;0.68;;;0.45;;
67717;SDS011;54511;47.532;19.180;2023-03-01T14:24:56;2.60;;;0.55;;
67717;SDS011;54511;47.532;19.180;2023-03-01T14:28:24;0.20;;;0.20;;
67717;SDS011;54511;47.532;19.180;2023-03-01T14:31:51;1.80;;;0.65;;
67717;SDS011;54511;47.532;19.180;2023-03-01T14:35:19;0.40;;;0.40;;
67717;SDS011;54511;47.532;19.180;2023-03-01T14:38:48;0.55;;;0.28;;
67717;SDS011;54511;47.532;19.180;2023-03-01T14:42:00;0.10;;;0.10;;
67717;SDS011;54511;47.532;19.180;2023-03-01T14:44:55;1.92;;;0.62;;
67717;SDS011;54511;47.532;19.180;2023-03-01T14:48:22;0.65;;;0.65;;
67717;SDS011;54511;47.532;19.180;2023-03-01T14:50:50;1.25;;;1.15;;
67717;SDS011;54511;47.532;19.180;2023-03-01T14:53:48;1.37;;;0.70;;
67717;SDS011;54511;47.532;19.180;2023-03-01T14:57:25;0.62;;;0.43;;
67717;SDS011;54511;47.532;19.180;2023-03-01T15:00:52;0.37;;;0.37;;
67717;SDS011;54511;47.532;19.180;2023-03-01T15:03:59;1.55;;;0.70;;
67717;SDS011;54511;47.532;19.180;2023-03-01T15:07:05;1.17;;;0.80;;
67717;SDS011;54511;47.532;19.180;2023-03-01T15:09:33;0.10;;;0.10;;
67717;SDS011;54511;47.532;19.180;2023-03-01T15:12:38;1.17;;;0.65;;
67717;SDS011;54511;47.532;19.180;2023-03-01T15:16:17;0.20;;;0.20;;
67717;SDS011;54511;47.532;19.180;2023-03-01T15:19:06;1.37;;;0.30;;
67717;SDS011;54511;47.532;19.180;2023-03-01T15:22:13;1.45;;;0.70;;
67717;SDS011;54511;47.532;19.180;2023-03-01T15:25:22;0.98;;;0.57;;
67717;SDS011;54511;47.532;19.180;2023-03-01T15:28:51;0.70;;;0.40;;
67717;SDS011;54511;47.532;19.180;2023-03-01T15:32:25;0.35;;;0.35;;
67717;SDS011;54511;47.532;19.180;2023-03-01T15:35:33;2.20;;;0.80;;
67717;SDS011;54511;47.532;19.180;2023-03-01T15:39:00;0.65;;;0.65;;
67717;SDS011;54511;47.532;19.180;2023-03-01T15:42:36;0.37;;;0.37;;
67717;SDS011;54511;47.532;19.180;2023-03-01T15:46:05;0.47;;;0.47;;
67717;SDS011;54511;47.532;19.180;2023-03-01T15:49:35;0.80;;;0.75;;
67717;SDS011;54511;47.532;19.180;2023-03-01T15:52:46;1.08;;;0.75;;
67717;SDS011;54511;47.532;19.180;2023-03-01T15:56:13;2.20;;;1.77;;
67717;SDS011;54511;47.532;19.180;2023-03-01T15:59:41;0.60;;;0.60;;
67717;SDS011;54511;47.532;19.180;2023-03-01T16:03:09;0.20;;;0.20;;
67717;SDS011;54511;47.532;19.180;2023-03-01T16:06:37;0.30;;;0.20;;
67717;SDS011;54511;47.532;19.180;2023-03-01T16:09:45;1.50;;;0.40;;
67717;SDS011;54511;47.532;19.180;2023-03-01T16:13:13;1.55;;;1.45;;
67717;SDS011;54511;47.532;19.180;2023-03-01T16:16:40;0.60;;;0.60;;
67717;SDS011;54511;47.532;19.180;2023-03-01T16:19:28;2.40;;;0.95;;
67717;SDS011;54511;47.532;19.180;2023-03-01T16:22:03;0.40;;;0.40;;
67717;SDS011;54511;47.532;19.180;2023-03-01T16:25:41;1.23;;;0.80;;
67717;SDS011;54511;47.532;19.180;2023-03-01T16:29:09;0.50;;;0.50;;
67717;SDS011;54511;47.532;19.180;2023-03-01T16:32:17;0.98;;;0.75;;
67717;SDS011;54511;47.532;19.180;2023-03-01T16:34:46;4.25;;;0.95;;
67717;SDS011;54511;47.532;19.180;2023-03-01T16:38:15;1.23;;;0.77;;
67717;SDS011;54511;47.532;19.180;2023-03-01T16:41:16;0.75;;;0.75;;
67717;SDS011;54511;47.532;19.180;2023-03-01T16:44:42;0.40;;;0.40;;
67717;SDS011;54511;47.532;19.180;2023-03-01T16:47:29;1.05;;;0.45;;
67717;SDS011;54511;47.532;19.180;2023-03-01T16:50:59;3.15;;;1.60;;
67717;SDS011;54511;47.532;19.180;2023-03-01T16:54:08;0.20;;;0.20;;
67717;SDS011;54511;47.532;19.180;2023-03-01T16:57:16;0.52;;;0.52;;
67717;SDS011;54511;47.532;19.180;2023-03-01T17:00:43;2.92;;;0.40;;
67717;SDS011;54511;47.532;19.180;2023-03-01T17:03:52;0.95;;;0.60;;
67717;SDS011;54511;47.532;19.180;2023-03-01T17:06:41;0.57;;;0.45;;
67717;SDS011;54511;47.532;19.180;2023-03-01T17:10:09;0.80;;;0.80;;
67717;SDS011;54511;47.532;19.180;2023-03-01T17:13:37;0.43;;;0.40;;
67717;SDS011;54511;47.532;19.180;2023-03-01T17:16:43;2.60;;;1.65;;
67717;SDS011;54511;47.532;19.180;2023-03-01T17:19:51;3.20;;;1.05;;
67717;SDS011;54511;47.532;19.180;2023-03-01T17:23:00;1.95;;;1.62;;
67717;SDS011;54511;47.532;19.180;2023-03-01T17:26:07;1.87;;;1.37;;
67717;SDS011;54511;47.532;19.180;2023-03-01T17:29:34;0.52;;;0.52;;
67717;SDS011;54511;47.532;19.180;2023-03-01T17:33:02;2.30;;;0.80;;
67717;SDS011;54511;47.532;19.180;2023-03-01T17:36:05;4.45;;;1.95;;
67717;SDS011;54511;47.532;19.180;2023-03-01T17:38:54;1.60;;;1.17;;
67717;SDS011;54511;47.532;19.180;2023-03-01T17:42:22;4.72;;;1.83;;
67717;SDS011;54511;47.532;19.180;2023-03-01T17:45:09;4.97;;;2.20;;
67717;SDS011;54511;47.532;19.180;2023-03-01T17:48:36;1.27;;;1.17;;
67717;SDS011;54511;47.532;19.180;2023-03-01T17:51:44;0.77;;;0.45;;
67717;SDS011;54511;47.532;19.180;2023-03-01T17:54:53;1.65;;;1.20;;
67717;SDS011;54511;47.532;19.180;2023-03-01T17:58:00;0.98;;;0.80;;
67717;SDS011;54511;47.532;19.180;2023-03-01T18:00:47;1.15;;;0.30;;
67717;SDS011;54511;47.532;19.180;2023-03-01T18:04:16;2.80;;;1.45;;
67717;SDS011;54511;47.532;19.180;2023-03-01T18:07:03;2.78;;;1.00;;
67717;SDS011;54511;47.532;19.180;2023-03-01T18:09:50;1.52;;;0.95;;
67717;SDS011;54511;47.532;19.180;2023-03-01T18:13:20;1.42;;;0.60;;
67717;SDS011;54511;47.532;19.180;2023-03-01T18:16:49;3.03;;;1.90;;
67717;SDS011;54511;47.532;19.180;2023-03-01T18:19:56;2.60;;;0.30;;
67717;SDS011;54511;47.532;19.180;2023-03-01T18:23:23;1.17;;;1.08;;
67717;SDS011;54511;47.532;19.180;2023-03-01T18:26:31;0.47;;;0.47;;
67717;SDS011;54511;47.532;19.180;2023-03-01T18:30:00;2.10;;;1.48;;
67717;SDS011;54511;47.532;19.180;2023-03-01T18:32:48;0.90;;;0.50;;
67717;SDS011;54511;47.532;19.180;2023-03-01T18:35:55;1.95;;;1.60;;
67717;SDS011;54511;47.532;19.180;2023-03-01T18:38:23;3.50;;;1.00;;
67717;SDS011;54511;47.532;19.180;2023-03-01T18:41:52;1.85;;;1.70;;
67717;SDS011;54511;47.532;19.180;2023-03-01T18:45:00;4.53;;;3.10;;
67717;SDS011;54511;47.532;19.180;2023-03-01T18:47:48;6.90;;;3.87;;
67717;SDS011;54511;47.532;19.180;2023-03-01T18:51:18;2.30;;;2.10;;
67717;SDS011;54511;47.532;19.180;2023-03-01T18:54:44;2.45;;;2.08;;
67717;SDS011;54511;47.532;19.180;2023-03-01T18:57:33;7.40;;;4.45;;
67717;SDS011;54511;47.532;19.180;2023-03-01T19:01:00;1.30;;;1.20;;
67717;SDS011;54511;47.532;19.180;2023-03-01T19:03:47;3.25;;;2.10;;
67717;SDS011;54511;47.532;19.180;2023-03-01T19:06:54;2.53;;;2.03;;
67717;SDS011;54511;47.532;19.180;2023-03-01T19:10:01;4.82;;;3.03;;
67717;SDS011;54511;47.532;19.180;2023-03-01T19:13:29;3.15;;;2.85;;
67717;SDS011;54511;47.532;19.180;2023-03-01T19:16:56;1.33;;;1.27;;
67717;SDS011;54511;47.532;19.180;2023-03-01T19:19:24;7.03;;;4.00;;
67717;SDS011;54511;47.532;19.180;2023-03-01T19:22:31;6.55;;;4.62;;
67717;SDS011;54511;47.532;19.180;2023-03-01T19:25:18;3.70;;;3.17;;
67717;SDS011;54511;47.532;19.180;2023-03-01T19:28:25;10.18;;;5.20;;
67717;SDS011;54511;47.532;19.180;2023-03-01T19:31:54;8.27;;;5.80;;
67717;SDS011;54511;47.532;19.180;2023-03-01T19:34:43;15.70;;;5.78;;
67717;SDS011;54511;47.532;19.180;2023-03-01T19:37:50;4.37;;;3.75;;
67717;SDS011;54511;47.532;19.180;2023-03-01T19:40:37;16.67;;;4.70;;